sensor_id;sensor_type;location;lat;lon;timestamp;pressure;altitude;pressure_sealevel;temperature;humidity
59315;BME280;46521;50.160;20.802;2023-01-26T00:13:58;100517.57;;;-0.24;81.22
59315;BME280;46521;50.160;20.802;2023-01-26T00:24:00;100504.13;;;-0.32;81.07
59315;BME280;46521;50.160;20.802;2023-01-26T00:34:02;100492.06;;;-0.33;80.77
59315;BME280;46521;50.160;20.802;2023-01-26T00:44:03;100489.78;;;-0.39;81.10
59315;BME280;46521;50.160;20.802;2023-01-26T00:54:05;100480.36;;;-0.42;80.79
59315;BME280;46521;50.160;20.802;2023-01-26T01:04:06;100479.30;;;-0.38;80.91
59315;BME280;46521;50.160;20.802;2023-01-26T01:14:09;100465.45;;;-0.38;80.53
59315;BME280;46521;50.160;20.802;2023-01-26T01:24:11;100461.34;;;-0.42;80.61
59315;BME280;46521;50.160;20.802;2023-01-26T01:34:12;100445.75;;;-0.42;80.80
59315;BME280;46521;50.160;20.802;2023-01-26T01:44:17;100432.67;;;-0.41;80.24
59315;BME280;46521;50.160;20.802;2023-01-26T01:54:24;100419.60;;;-0.39;80.82
59315;BME280;46521;50.160;20.802;2023-01-26T02:04:28;100414.41;;;-0.39;80.60
59315;BME280;46521;50.160;20.802;2023-01-26T02:14:31;100414.56;;;-0.42;80.04
59315;BME280;46521;50.160;20.802;2023-01-26T02:24:35;100408.14;;;-0.52;80.16
59315;BME280;46521;50.160;20.802;2023-01-26T02:34:38;100396.06;;;-0.53;80.21
59315;BME280;46521;50.160;20.802;2023-01-26T02:44:42;100389.20;;;-0.55;80.22
59315;BME280;46521;50.160;20.802;2023-01-26T02:54:44;100385.98;;;-0.60;79.95
59315;BME280;46521;50.160;20.802;2023-01-26T03:05:04;100380.86;;;-0.61;79.92
59315;BME280;46521;50.160;20.802;2023-01-26T03:15:07;100383.38;;;-0.60;79.98
59315;BME280;46521;50.160;20.802;2023-01-26T03:25:27;100380.78;;;-0.60;79.83
59315;BME280;46521;50.160;20.802;2023-01-26T03:35:47;100364.20;;;-0.57;79.69
59315;BME280;46521;50.160;20.802;2023-01-26T03:45:48;100344.56;;;-0.63;79.91
59315;BME280;46521;50.160;20.802;2023-01-26T03:56:10;100345.03;;;-0.55;79.56
59315;BME280;46521;50.160;20.802;2023-01-26T04:06:24;100336.30;;;-0.53;79.31
59315;BME280;46521;50.160;20.802;2023-01-26T04:16:44;100330.62;;;-0.44;79.49
59315;BME280;46521;50.160;20.802;2023-01-26T04:27:05;100325.42;;;-0.44;79.40
59315;BME280;46521;50.160;20.802;2023-01-26T04:37:07;100315.64;;;-0.39;79.28
59315;BME280;46521;50.160;20.802;2023-01-26T04:47:10;100300.80;;;-0.37;79.07
59315;BME280;46521;50.160;20.802;2023-01-26T04:57:11;100294.94;;;-0.41;79.01
59315;BME280;46521;50.160;20.802;2023-01-26T05:07:13;100287.80;;;-0.37;79.07
59315;BME280;46521;50.160;20.802;2023-01-26T05:17:14;100290.40;;;-0.37;78.84
59315;BME280;46521;50.160;20.802;2023-01-26T05:27:16;100289.81;;;-0.42;78.62
59315;BME280;46521;50.160;20.802;2023-01-26T05:37:23;100281.08;;;-0.41;78.68
59315;BME280;46521;50.160;20.802;2023-01-26T05:47:25;100281.08;;;-0.41;78.46
59315;BME280;46521;50.160;20.802;2023-01-26T05:57:26;100286.97;;;-0.38;78.65
59315;BME280;46521;50.160;20.802;2023-01-26T06:07:28;100285.28;;;-0.39;78.55
59315;BME280;46521;50.160;20.802;2023-01-26T06:17:30;100275.88;;;-0.41;78.29
59315;BME280;46521;50.160;20.802;2023-01-26T06:27:31;100280.33;;;-0.43;78.37
59315;BME280;46521;50.160;20.802;2023-01-26T06:37:34;100280.66;;;-0.49;78.13
59315;BME280;46521;50.160;20.802;2023-01-26T06:47:36;100286.90;;;-0.69;78.08
59315;BME280;46521;50.160;20.802;2023-01-26T06:57:37;100286.66;;;-0.65;78.58
59315;BME280;46521;50.160;20.802;2023-01-26T07:07:38;100282.83;;;-0.58;78.02
59315;BME280;46521;50.160;20.802;2023-01-26T07:17:40;100277.88;;;-0.62;78.08
59315;BME280;46521;50.160;20.802;2023-01-26T07:27:42;100271.09;;;-0.49;78.35
59315;BME280;46521;50.160;20.802;2023-01-26T07:37:43;100267.50;;;-0.46;78.37
59315;BME280;46521;50.160;20.802;2023-01-26T07:47:45;100271.95;;;-0.48;78.30
59315;BME280;46521;50.160;20.802;2023-01-26T07:57:47;100273.19;;;-0.56;77.81
59315;BME280;46521;50.160;20.802;2023-01-26T08:07:49;100280.13;;;-0.72;77.79
59315;BME280;46521;50.160;20.802;2023-01-26T08:17:52;100278.17;;;-0.84;77.78
59315;BME280;46521;50.160;20.802;2023-01-26T08:27:54;100266.98;;;-0.69;78.23
59315;BME280;46521;50.160;20.802;2023-01-26T08:37:56;100259.61;;;-0.61;77.70
59315;BME280;46521;50.160;20.802;2023-01-26T08:47:57;100253.92;;;-0.51;77.12
59315;BME280;46521;50.160;20.802;2023-01-26T08:57:58;100260.78;;;-0.50;77.54
59315;BME280;46521;50.160;20.802;2023-01-26T09:08:01;100256.78;;;-0.40;77.21
59315;BME280;46521;50.160;20.802;2023-01-26T09:18:03;100259.05;;;-0.34;77.12
59315;BME280;46521;50.160;20.802;2023-01-26T09:28:05;100249.89;;;-0.41;76.66
59315;BME280;46521;50.160;20.802;2023-01-26T09:38:07;100244.11;;;-0.46;76.70
59315;BME280;46521;50.160;20.802;2023-01-26T09:48:21;100222.33;;;-0.44;76.53
59315;BME280;46521;50.160;20.802;2023-01-26T09:58:33;100219.56;;;-0.41;76.44
59315;BME280;46521;50.160;20.802;2023-01-26T10:08:36;100215.36;;;-0.43;76.20
59315;BME280;46521;50.160;20.802;2023-01-26T10:19:00;100201.10;;;-0.52;76.03
59315;BME280;46521;50.160;20.802;2023-01-26T10:29:04;100183.94;;;-0.55;76.13
59315;BME280;46521;50.160;20.802;2023-01-26T10:39:07;100179.55;;;-0.38;76.20
59315;BME280;46521;50.160;20.802;2023-01-26T10:59:32;100157.86;;;-0.37;75.88
59315;BME280;46521;50.160;20.802;2023-01-26T11:09:34;100146.17;;;-0.30;76.41
59315;BME280;46521;50.160;20.802;2023-01-26T11:30:27;100142.12;;;-0.50;75.95
59315;BME280;46521;50.160;20.802;2023-01-26T12:01:28;100095.31;;;-0.34;76.15
59315;BME280;46521;50.160;20.802;2023-01-26T12:21:43;100081.67;;;-0.53;76.45
59315;BME280;46521;50.160;20.802;2023-01-26T12:32:02;100080.06;;;-0.40;76.66
59315;BME280;46521;50.160;20.802;2023-01-26T12:52:31;100062.70;;;-0.40;76.85
59315;BME280;46521;50.160;20.802;2023-01-26T13:02:35;100056.76;;;-0.42;76.37
59315;BME280;46521;50.160;20.802;2023-01-26T13:22:46;100060.19;;;-0.41;76.51
59315;BME280;46521;50.160;20.802;2023-01-26T13:53:43;100060.78;;;-0.36;76.11
59315;BME280;46521;50.160;20.802;2023-01-26T14:03:46;100066.50;;;-0.45;76.06
59315;BME280;46521;50.160;20.802;2023-01-26T14:13:59;100053.86;;;-0.51;76.10
59315;BME280;46521;50.160;20.802;2023-01-26T14:24:01;100058.28;;;-0.53;76.52
59315;BME280;46521;50.160;20.802;2023-01-26T14:34:08;100040.01;;;-0.52;76.43
59315;BME280;46521;50.160;20.802;2023-01-26T14:44:10;100051.61;;;-0.58;76.37
59315;BME280;46521;50.160;20.802;2023-01-26T14:54:21;100048.06;;;-0.57;76.35
59315;BME280;46521;50.160;20.802;2023-01-26T15:04:32;100037.84;;;-0.60;76.25
59315;BME280;46521;50.160;20.802;2023-01-26T15:24:46;100048.50;;;-0.64;76.58
59315;BME280;46521;50.160;20.802;2023-01-26T15:45:18;100041.39;;;-0.61;76.44
59315;BME280;46521;50.160;20.802;2023-01-26T15:55:26;100044.73;;;-0.59;76.59
59315;BME280;46521;50.160;20.802;2023-01-26T16:05:29;100044.59;;;-0.71;76.41
59315;BME280;46521;50.160;20.802;2023-01-26T16:25:48;100040.56;;;-0.77;76.70
59315;BME280;46521;50.160;20.802;2023-01-26T16:35:51;100035.05;;;-0.87;76.70
59315;BME280;46521;50.160;20.802;2023-01-26T16:45:53;100030.27;;;-0.79;76.63
59315;BME280;46521;50.160;20.802;2023-01-26T16:55:55;100027.01;;;-0.82;76.74
59315;BME280;46521;50.160;20.802;2023-01-26T17:05:57;100022.55;;;-0.80;76.84
59315;BME280;46521;50.160;20.802;2023-01-26T17:15:59;100016.62;;;-0.82;76.62
59315;BME280;46521;50.160;20.802;2023-01-26T17:26:00;100014.84;;;-0.82;76.66
59315;BME280;46521;50.160;20.802;2023-01-26T17:36:03;100014.11;;;-0.84;76.24
59315;BME280;46521;50.160;20.802;2023-01-26T17:46:11;100013.28;;;-0.84;76.43
59315;BME280;46521;50.160;20.802;2023-01-26T17:56:16;100013.85;;;-0.79;76.88
59315;BME280;46521;50.160;20.802;2023-01-26T18:06:18;100017.78;;;-0.88;76.82
59315;BME280;46521;50.160;20.802;2023-01-26T18:16:20;100008.57;;;-0.78;76.95
59315;BME280;46521;50.160;20.802;2023-01-26T18:26:23;100012.25;;;-0.82;76.86
59315;BME280;46521;50.160;20.802;2023-01-26T18:36:26;100025.66;;;-0.74;76.72
59315;BME280;46521;50.160;20.802;2023-01-26T18:46:28;100017.78;;;-0.72;77.03
59315;BME280;46521;50.160;20.802;2023-01-26T18:56:31;100024.38;;;-0.66;77.47
59315;BME280;46521;50.160;20.802;2023-01-26T19:06:33;100025.97;;;-0.64;77.28
59315;BME280;46521;50.160;20.802;2023-01-26T19:16:35;100033.94;;;-0.67;76.94
59315;BME280;46521;50.160;20.802;2023-01-26T19:26:37;100016.84;;;-0.71;77.48
59315;BME280;46521;50.160;20.802;2023-01-26T19:36:38;100010.73;;;-0.70;77.57
59315;BME280;46521;50.160;20.802;2023-01-26T19:46:40;100007.79;;;-0.64;77.34
59315;BME280;46521;50.160;20.802;2023-01-26T19:56:42;100001.86;;;-0.66;77.53
59315;BME280;46521;50.160;20.802;2023-01-26T20:06:47;99994.98;;;-0.67;77.59
59315;BME280;46521;50.160;20.802;2023-01-26T20:16:49;99998.84;;;-0.74;77.76
59315;BME280;46521;50.160;20.802;2023-01-26T20:26:51;99983.59;;;-0.80;77.53
59315;BME280;46521;50.160;20.802;2023-01-26T20:36:53;99976.24;;;-0.88;77.40
59315;BME280;46521;50.160;20.802;2023-01-26T20:47:00;99979.52;;;-0.84;77.52
59315;BME280;46521;50.160;20.802;2023-01-26T20:57:01;99971.64;;;-0.83;77.69
59315;BME280;46521;50.160;20.802;2023-01-26T21:07:03;99977.58;;;-0.81;77.82
59315;BME280;46521;50.160;20.802;2023-01-26T21:17:05;99978.41;;;-0.80;77.64
59315;BME280;46521;50.160;20.802;2023-01-26T21:27:07;99983.69;;;-0.82;77.38
59315;BME280;46521;50.160;20.802;2023-01-26T21:37:09;99974.06;;;-0.80;77.51
59315;BME280;46521;50.160;20.802;2023-01-26T21:47:10;99963.86;;;-0.83;77.53
59315;BME280;46521;50.160;20.802;2023-01-26T21:57:12;99957.98;;;-0.86;77.93
59315;BME280;46521;50.160;20.802;2023-01-26T22:07:31;99956.33;;;-0.87;77.82
59315;BME280;46521;50.160;20.802;2023-01-26T22:17:33;99947.59;;;-0.86;78.04
59315;BME280;46521;50.160;20.802;2023-01-26T22:27:38;99950.96;;;-0.84;78.10
59315;BME280;46521;50.160;20.802;2023-01-26T22:37:39;99955.98;;;-0.81;78.03
59315;BME280;46521;50.160;20.802;2023-01-26T22:47:41;99939.63;;;-0.83;77.96
59315;BME280;46521;50.160;20.802;2023-01-26T22:57:43;99938.23;;;-0.89;78.05
59315;BME280;46521;50.160;20.802;2023-01-26T23:07:45;99940.16;;;-0.93;77.89
59315;BME280;46521;50.160;20.802;2023-01-26T23:17:50;99927.17;;;-0.93;77.99
59315;BME280;46521;50.160;20.802;2023-01-26T23:27:52;99927.08;;;-0.91;78.08
59315;BME280;46521;50.160;20.802;2023-01-26T23:37:53;99930.80;;;-0.95;78.09
59315;BME280;46521;50.160;20.802;2023-01-26T23:47:55;99929.94;;;-0.96;77.89
